Time;durP1;ratioP1;P1;durP2;ratioP2;P2;SDS_P1;SDS_P2;PMS_P1;PMS_P2;Temp;Humidity;BMP_temperature;BMP_pressure;BME280_temperature;BME280_humidity;BME280_pressure;Samples;Min_cycle;Max_cycle;Signal;HPM_P1;HPM_P2
2022/05/28 00:01:17;;;;;;;7.17;1.57;;;12.50;99.90;;;;;;5116687;28;20249;-64
2022/05/28 00:03:43;;;;;;;4.07;1.60;;;12.40;99.90;;;;;;5116399;28;20208;-67
2022/05/28 00:06:13;;;;;;;6.63;1.70;;;12.30;99.90;;;;;;5116402;28;20217;-66
2022/05/28 00:08:40;;;;;;;6.70;1.50;;;12.40;99.90;;;;;;5116036;28;20199;-66
2022/05/28 00:11:21;;;;;;;5.03;1.60;;;12.30;99.90;;;;;;5116764;28;20199;-65
2022/05/28 00:13:48;;;;;;;4.43;1.30;;;12.30;99.90;;;;;;5116510;28;20245;-66
2022/05/28 00:16:14;;;;;;;4.53;1.40;;;12.30;99.90;;;;;;5116630;28;20567;-65
2022/05/28 00:18:40;;;;;;;7.40;1.87;;;12.30;99.90;;;;;;5116341;28;20633;-66
2022/05/28 00:21:08;;;;;;;3.07;1.27;;;12.20;99.90;;;;;;5116506;28;20175;-66
2022/05/28 00:23:35;;;;;;;4.13;1.43;;;12.30;99.90;;;;;;5115943;28;20159;-65
2022/05/28 00:26:02;;;;;;;1.97;1.53;;;12.20;99.90;;;;;;5116024;28;20220;-66
2022/05/28 00:28:28;;;;;;;1.23;1.10;;;12.20;99.90;;;;;;5115915;28;20502;-65
2022/05/28 00:30:54;;;;;;;3.73;1.80;;;12.20;99.90;;;;;;5116478;28;20257;-65
2022/05/28 00:33:20;;;;;;;5.77;1.67;;;12.10;99.90;;;;;;5116976;28;20583;-65
2022/05/28 00:35:45;;;;;;;2.27;1.43;;;12.20;99.90;;;;;;5097776;28;20178;-66
2022/05/28 00:38:11;;;;;;;6.00;1.67;;;12.20;99.90;;;;;;5117039;28;20184;-66
2022/05/28 00:40:37;;;;;;;4.03;1.40;;;12.10;99.90;;;;;;5118111;28;20162;-66
2022/05/28 00:43:06;;;;;;;7.53;1.47;;;12.00;99.90;;;;;;5123711;28;20170;-65
2022/05/28 00:45:33;;;;;;;4.47;2.03;;;12.10;99.90;;;;;;5125692;28;20201;-64
2022/05/28 00:48:03;;;;;;;2.73;1.30;;;12.10;99.90;;;;;;5127052;28;20167;-67
2022/05/28 00:50:30;;;;;;;4.03;1.53;;;12.10;99.90;;;;;;5127763;28;20178;-63
2022/05/28 00:52:56;;;;;;;4.23;1.13;;;12.00;99.90;;;;;;5114995;28;20170;-64
2022/05/28 00:55:22;;;;;;;3.77;1.60;;;12.00;99.90;;;;;;5115237;28;20186;-66
2022/05/28 00:57:49;;;;;;;3.47;1.10;;;12.10;99.90;;;;;;5115091;28;20165;-64
2022/05/28 01:00:19;;;;;;;4.70;1.50;;;12.00;99.90;;;;;;5115286;28;20168;-66
2022/05/28 01:02:44;;;;;;;4.17;1.23;;;12.00;99.90;;;;;;5115147;28;20156;-66
2022/05/28 01:05:40;;;;;;;3.10;1.40;;;12.10;99.90;;;;;;5115159;28;20200;-65
2022/05/28 01:08:12;;;;;;;1.40;1.30;;;12.10;99.90;;;;;;5114874;28;20227;-65
2022/05/28 01:10:43;;;;;;;5.13;1.43;;;12.00;99.90;;;;;;5115336;28;20186;-66
2022/05/28 01:13:16;;;;;;;6.67;1.40;;;11.90;99.90;;;;;;5114787;28;20162;-66
2022/05/28 01:15:53;;;;;;;9.43;1.80;;;11.80;99.90;;;;;;5114981;28;20505;-65
2022/05/28 01:18:47;;;;;;;1.93;1.10;;;11.80;99.90;;;;;;5114433;28;20658;-66
2022/05/28 01:21:34;;;;;;;4.40;1.30;;;11.80;99.90;;;;;;5114022;28;20493;-66
2022/05/28 01:24:25;;;;;;;5.00;1.20;;;11.90;99.90;;;;;;5114513;28;20161;-64
2022/05/28 01:26:59;;;;;;;5.70;1.30;;;11.80;99.90;;;;;;5114862;28;20706;-65
2022/05/28 01:29:31;;;;;;;2.30;1.43;;;11.90;99.90;;;;;;5115180;28;20204;-64
2022/05/28 01:31:58;;;;;;;2.20;1.20;;;11.90;99.90;;;;;;5114501;28;20625;-65
2022/05/28 01:34:25;;;;;;;3.57;1.67;;;11.80;99.90;;;;;;5097206;28;20505;-66
2022/05/28 01:36:51;;;;;;;4.73;1.40;;;11.80;99.90;;;;;;5097212;28;20551;-65
2022/05/28 01:39:18;;;;;;;4.27;1.10;;;11.80;99.90;;;;;;5096264;28;20174;-65
2022/05/28 01:41:46;;;;;;;4.70;1.30;;;11.80;99.90;;;;;;5114164;28;20154;-65
2022/05/28 01:44:13;;;;;;;3.17;1.13;;;11.90;99.90;;;;;;5114636;28;20156;-65
2022/05/28 01:46:40;;;;;;;7.87;1.80;;;11.80;99.90;;;;;;5115121;28;20189;-64
2022/05/28 01:49:11;;;;;;;2.00;1.53;;;11.80;99.90;;;;;;5116392;28;20170;-63
2022/05/28 01:51:40;;;;;;;7.03;1.70;;;11.70;99.90;;;;;;5117297;28;20167;-64
2022/05/28 01:54:08;;;;;;;5.37;1.33;;;11.70;99.90;;;;;;5118785;28;20162;-65
2022/05/28 01:56:38;;;;;;;6.07;1.40;;;11.70;99.90;;;;;;5117762;28;20168;-65
2022/05/28 01:59:05;;;;;;;9.67;1.77;;;11.70;99.90;;;;;;5121414;28;20162;-65
2022/05/28 02:01:31;;;;;;;5.80;1.57;;;11.60;99.90;;;;;;5120944;28;20166;-67
2022/05/28 02:04:00;;;;;;;4.37;1.30;;;11.60;99.90;;;;;;5120935;28;20169;-65
2022/05/28 02:06:26;;;;;;;5.40;1.90;;;11.50;99.90;;;;;;5115276;28;20196;-64
2022/05/28 02:08:54;;;;;;;5.60;1.40;;;11.60;99.90;;;;;;5114378;28;20157;-64
2022/05/28 02:11:23;;;;;;;3.10;1.13;;;11.60;99.90;;;;;;5114594;28;20180;-64
2022/05/28 02:14:07;;;;;;;2.67;1.30;;;11.60;99.90;;;;;;5114772;28;20193;-64
2022/05/28 02:16:48;;;;;;;6.33;1.53;;;11.60;99.90;;;;;;5115596;28;20211;-64
2022/05/28 02:19:22;;;;;;;2.83;1.40;;;11.50;99.90;;;;;;5118033;28;20159;-65
2022/05/28 02:21:56;;;;;;;10.50;1.93;;;11.50;99.90;;;;;;5118563;28;20552;-64
2022/05/28 02:24:36;;;;;;;5.03;1.80;;;11.50;99.90;;;;;;5120129;28;20164;-66
2022/05/28 02:27:08;;;;;;;2.60;1.40;;;11.50;99.90;;;;;;5117927;28;20221;-65
2022/05/28 02:29:34;;;;;;;4.33;1.40;;;11.50;99.90;;;;;;5117788;28;20602;-67
2022/05/28 02:31:59;;;;;;;3.50;1.40;;;11.40;99.90;;;;;;5116724;28;20155;-65
2022/05/28 02:34:25;;;;;;;2.60;1.37;;;11.40;99.90;;;;;;5116673;28;20502;-64
2022/05/28 02:36:50;;;;;;;4.93;1.63;;;11.40;99.90;;;;;;5097081;28;20178;-65
2022/05/28 02:39:16;;;;;;;4.40;1.60;;;11.30;99.90;;;;;;5115461;28;20172;-65
2022/05/28 02:41:42;;;;;;;3.43;1.40;;;11.20;99.90;;;;;;5115267;28;20174;-66
2022/05/28 02:44:09;;;;;;;6.77;2.03;;;11.20;99.90;;;;;;5115277;28;20166;-64
2022/05/28 02:46:35;;;;;;;4.57;1.50;;;11.40;99.90;;;;;;5115573;28;20334;-64
2022/05/28 02:49:01;;;;;;;6.47;1.40;;;11.40;99.90;;;;;;5113452;28;20209;-65
2022/05/28 02:51:26;;;;;;;2.43;1.23;;;11.30;99.90;;;;;;5113707;28;20502;-65
2022/05/28 02:53:54;;;;;;;5.43;1.40;;;11.30;99.90;;;;;;5122662;28;20170;-66
2022/05/28 02:56:20;;;;;;;10.10;1.73;;;11.30;99.90;;;;;;5126702;28;20165;-66
2022/05/28 02:58:46;;;;;;;3.13;1.13;;;11.20;99.90;;;;;;5126995;28;20158;-63
2022/05/28 03:01:32;;;;;;;2.43;1.23;;;11.10;99.90;;;;;;5117357;28;20642;-63
2022/05/28 03:03:58;;;;;;;4.63;1.23;;;11.20;99.90;;;;;;5100287;28;20183;-65
2022/05/28 03:06:24;;;;;;;3.43;1.30;;;11.10;99.90;;;;;;5093365;28;20195;-63
2022/05/28 03:08:50;;;;;;;5.43;2.00;;;11.20;99.90;;;;;;5093576;28;20166;-65
2022/05/28 03:11:15;;;;;;;3.43;1.60;;;11.10;99.90;;;;;;5092298;28;20179;-64
2022/05/28 03:13:41;;;;;;;6.67;1.80;;;10.90;99.90;;;;;;5093363;28;20167;-65
2022/05/28 03:16:07;;;;;;;5.10;1.30;;;11.10;99.90;;;;;;5095284;28;20171;-63
2022/05/28 03:18:34;;;;;;;3.60;1.50;;;11.10;99.90;;;;;;5097256;28;20171;-64
2022/05/28 03:20:59;;;;;;;1.67;0.93;;;11.00;99.90;;;;;;5097326;28;20151;-64
2022/05/28 03:23:25;;;;;;;3.63;1.47;;;11.10;99.90;;;;;;5097375;28;20173;-64
2022/05/28 03:25:51;;;;;;;4.97;1.23;;;11.10;99.90;;;;;;5096671;28;20218;-64
2022/05/28 03:28:16;;;;;;;1.73;1.07;;;11.00;99.90;;;;;;5097603;28;20229;-65
2022/05/28 03:30:42;;;;;;;2.70;1.37;;;11.00;99.90;;;;;;5097134;28;20599;-63
2022/05/28 03:33:08;;;;;;;7.07;1.70;;;11.10;99.90;;;;;;5096849;28;20207;-64
2022/05/28 03:35:34;;;;;;;4.40;1.67;;;11.10;99.90;;;;;;5096730;28;20163;-64
2022/05/28 03:38:01;;;;;;;5.93;1.50;;;11.20;99.90;;;;;;5096645;28;20194;-64
2022/05/28 03:40:27;;;;;;;4.27;1.67;;;11.30;99.90;;;;;;5096485;28;20155;-64
2022/05/28 03:42:53;;;;;;;7.07;1.27;;;11.30;99.90;;;;;;5096207;28;20308;-65
2022/05/28 03:45:18;;;;;;;5.37;1.80;;;11.20;99.90;;;;;;5096204;28;20186;-64
2022/05/28 03:47:44;;;;;;;5.93;1.23;;;11.20;99.90;;;;;;5096449;28;20171;-66
2022/05/28 03:50:09;;;;;;;1.97;1.13;;;11.10;99.90;;;;;;5099877;28;20640;-64
2022/05/28 03:52:35;;;;;;;1.53;1.00;;;11.10;99.90;;;;;;5097449;28;20221;-64
2022/05/28 03:55:01;;;;;;;2.70;1.27;;;11.20;99.90;;;;;;5096095;28;20163;-65
2022/05/28 03:57:30;;;;;;;5.33;1.47;;;11.30;99.90;;;;;;5096225;28;20220;-63
2022/05/28 03:59:57;;;;;;;4.43;1.23;;;11.40;99.90;;;;;;5096024;28;20224;-64
2022/05/28 04:02:23;;;;;;;2.07;1.00;;;11.50;99.90;;;;;;5096451;28;20583;-66
2022/05/28 04:04:49;;;;;;;3.77;1.47;;;11.50;99.90;;;;;;5096301;28;20167;-63
2022/05/28 04:07:16;;;;;;;3.40;1.03;;;11.50;99.90;;;;;;5096546;28;20590;-64
2022/05/28 04:09:42;;;;;;;5.10;1.10;;;11.50;99.90;;;;;;5100360;28;20179;-65
2022/05/28 04:12:08;;;;;;;5.90;1.60;;;11.40;99.90;;;;;;5103723;28;20163;-64
2022/05/28 04:14:34;;;;;;;4.73;1.30;;;11.40;99.90;;;;;;5097293;28;20627;-63
2022/05/28 04:16:59;;;;;;;5.47;1.30;;;11.50;99.90;;;;;;5095658;28;20213;-64
2022/05/28 04:19:25;;;;;;;3.97;1.10;;;11.50;99.90;;;;;;5095965;28;20561;-64
2022/05/28 04:21:50;;;;;;;3.53;1.03;;;11.60;99.90;;;;;;5095752;28;20226;-65
2022/05/28 04:24:16;;;;;;;2.67;0.90;;;11.60;99.90;;;;;;5095804;28;20167;-65
2022/05/28 04:26:42;;;;;;;4.97;1.23;;;11.50;99.90;;;;;;5095294;28;20235;-66
2022/05/28 04:29:08;;;;;;;3.30;1.50;;;11.60;99.90;;;;;;5095093;28;20250;-63
2022/05/28 04:31:33;;;;;;;2.97;1.47;;;11.60;99.90;;;;;;5095624;28;20155;-64
2022/05/28 04:33:59;;;;;;;4.90;1.30;;;11.60;99.90;;;;;;5095812;28;20193;-65
2022/05/28 04:36:25;;;;;;;3.37;1.10;;;11.80;99.90;;;;;;5095822;28;20171;-64
2022/05/28 04:38:51;;;;;;;2.37;1.10;;;11.80;99.90;;;;;;5095613;28;20220;-66
2022/05/28 04:41:17;;;;;;;5.23;0.70;;;11.80;99.90;;;;;;5098482;28;20670;-64
2022/05/28 04:43:43;;;;;;;4.53;1.53;;;11.80;99.90;;;;;;5099259;28;20163;-65
2022/05/28 04:46:08;;;;;;;4.60;1.30;;;11.80;99.90;;;;;;5099240;28;20291;-65
2022/05/28 04:48:34;;;;;;;3.17;1.27;;;11.70;99.90;;;;;;5096672;28;20574;-64
2022/05/28 04:51:00;;;;;;;7.43;1.10;;;11.60;99.90;;;;;;5095682;28;20163;-64
2022/05/28 04:53:26;;;;;;;2.77;0.93;;;11.30;99.90;;;;;;5095809;28;20228;-64
2022/05/28 04:55:52;;;;;;;2.37;1.00;;;10.90;99.90;;;;;;5096320;28;20163;-66
2022/05/28 04:58:17;;;;;;;6.77;2.00;;;10.90;99.90;;;;;;5099301;28;20242;-64
2022/05/28 05:00:45;;;;;;;2.87;1.23;;;10.70;99.90;;;;;;5098247;28;20160;-65
2022/05/28 05:03:11;;;;;;;4.60;1.30;;;10.50;99.90;;;;;;5096365;28;20245;-63
2022/05/28 05:05:37;;;;;;;5.90;1.70;;;10.60;99.90;;;;;;5097687;28;20226;-63
2022/05/28 05:08:04;;;;;;;11.30;1.67;;;10.50;99.90;;;;;;5096939;28;20171;-65
2022/05/28 05:10:29;;;;;;;3.43;1.30;;;10.50;99.90;;;;;;5095137;28;20166;-64
2022/05/28 05:12:55;;;;;;;3.00;1.20;;;10.50;99.90;;;;;;5077337;28;20186;-63
2022/05/28 05:15:21;;;;;;;6.70;1.83;;;10.30;99.90;;;;;;5095204;28;20640;-66
2022/05/28 05:17:47;;;;;;;1.47;1.20;;;10.40;99.90;;;;;;5096338;28;20193;-64
2022/05/28 05:20:13;;;;;;;3.20;1.63;;;10.40;99.90;;;;;;5096273;28;20591;-66
2022/05/28 05:22:40;;;;;;;3.10;1.23;;;10.40;99.90;;;;;;5095134;28;20174;-65
2022/05/28 05:25:06;;;;;;;6.60;1.83;;;10.30;99.90;;;;;;5095512;28;20213;-64
2022/05/28 05:27:32;;;;;;;9.77;1.83;;;10.40;99.90;;;;;;5098959;28;20233;-66
2022/05/28 05:29:59;;;;;;;3.33;1.13;;;10.40;99.90;;;;;;5103436;28;20161;-66
2022/05/28 05:32:25;;;;;;;6.70;1.50;;;10.40;99.90;;;;;;5099262;28;20182;-66
2022/05/28 05:34:51;;;;;;;4.13;1.23;;;10.40;99.90;;;;;;5076775;28;20171;-65
2022/05/28 05:37:17;;;;;;;6.93;1.50;;;10.40;99.90;;;;;;5094505;28;20686;-62
2022/05/28 05:39:43;;;;;;;5.73;1.50;;;10.40;99.90;;;;;;5075885;28;20194;-63
2022/05/28 05:42:08;;;;;;;3.20;1.10;;;10.30;99.90;;;;;;5094023;28;20593;-63
2022/05/28 05:44:34;;;;;;;1.80;1.10;;;10.20;99.90;;;;;;5094414;28;20204;-65
2022/05/28 05:47:00;;;;;;;4.13;1.50;;;10.30;99.90;;;;;;5093926;28;20197;-65
2022/05/28 05:49:26;;;;;;;2.40;1.20;;;10.40;99.90;;;;;;5093795;28;20163;-65
2022/05/28 05:51:52;;;;;;;3.13;1.43;;;10.50;99.90;;;;;;5094454;28;20587;-66
2022/05/28 05:54:19;;;;;;;2.03;1.00;;;10.50;99.90;;;;;;5093931;28;20155;-64
2022/05/28 05:56:45;;;;;;;2.73;0.83;;;10.50;99.90;;;;;;5093975;28;20166;-65
2022/05/28 05:59:11;;;;;;;2.83;1.27;;;10.40;99.90;;;;;;5094207;28;20245;-65
2022/05/28 06:01:36;;;;;;;2.17;1.00;;;10.40;99.90;;;;;;5093639;28;20174;-66
2022/05/28 06:04:02;;;;;;;4.70;1.17;;;10.30;99.90;;;;;;5093666;28;20171;-65
2022/05/28 06:06:28;;;;;;;1.20;1.10;;;10.30;99.90;;;;;;5093779;28;20203;-65
2022/05/28 06:08:53;;;;;;;0.80;0.80;;;10.10;99.90;;;;;;5094176;28;20159;-65
2022/05/28 06:11:19;;;;;;;0.80;0.80;;;10.20;99.90;;;;;;5093628;28;20158;-64
2022/05/28 06:13:45;;;;;;;3.10;0.80;;;10.10;99.90;;;;;;5093645;28;20161;-65
2022/05/28 06:16:10;;;;;;;0.50;0.50;;;10.20;99.90;;;;;;5093897;28;20175;-67
2022/05/28 06:18:36;;;;;;;0.93;0.70;;;10.20;99.90;;;;;;5093268;28;20194;-65
2022/05/28 06:21:03;;;;;;;0.60;0.60;;;10.50;99.90;;;;;;5094036;28;20168;-65
2022/05/28 06:23:29;;;;;;;1.70;0.93;;;10.60;99.90;;;;;;5093642;28;20201;-65
2022/05/28 06:25:55;;;;;;;0.70;0.70;;;10.60;99.90;;;;;;5093637;28;20581;-65
2022/05/28 06:28:22;;;;;;;2.47;0.90;;;10.70;99.90;;;;;;5095044;28;20661;-65
2022/05/28 06:30:49;;;;;;;2.73;0.87;;;10.70;99.90;;;;;;5093712;28;20183;-66
2022/05/28 06:33:16;;;;;;;1.57;0.90;;;10.90;99.90;;;;;;5092665;28;20316;-64
2022/05/28 06:35:42;;;;;;;0.60;0.60;;;11.20;99.90;;;;;;5093286;28;20505;-66
2022/05/28 06:38:08;;;;;;;0.67;0.67;;;11.50;99.90;;;;;;5093311;28;20253;-66
2022/05/28 06:40:35;;;;;;;0.50;0.50;;;11.70;99.90;;;;;;5093490;28;20296;-63
2022/05/28 06:43:01;;;;;;;0.53;0.53;;;11.90;99.90;;;;;;5093446;28;20155;-66
2022/05/28 06:45:27;;;;;;;1.53;0.70;;;11.90;99.90;;;;;;5093424;28;20205;-64
2022/05/28 06:47:53;;;;;;;1.10;0.70;;;11.90;99.90;;;;;;5093146;28;20649;-66
2022/05/28 06:53:08;;;;;;;2.00;0.70;;;12.10;99.90;;;;;;5097327;28;20212;-66
2022/05/28 06:55:35;;;;;;;0.70;0.70;;;12.40;99.90;;;;;;5097469;28;20159;-67
2022/05/28 06:58:01;;;;;;;0.77;0.60;;;12.30;99.90;;;;;;5097360;28;20170;-65
2022/05/28 07:00:27;;;;;;;1.67;0.70;;;12.30;99.90;;;;;;5097554;28;20229;-68
2022/05/28 07:02:53;;;;;;;0.63;0.63;;;12.30;99.90;;;;;;5097072;28;20597;-68
2022/05/28 07:05:18;;;;;;;1.03;0.60;;;12.30;99.90;;;;;;5097237;28;20192;-63
2022/05/28 07:07:44;;;;;;;1.23;0.90;;;12.40;99.90;;;;;;5096930;28;20159;-66
2022/05/28 07:10:10;;;;;;;1.97;0.90;;;12.30;99.90;;;;;;5097478;28;20250;-64
2022/05/28 07:12:36;;;;;;;5.50;1.20;;;12.40;99.90;;;;;;5096876;28;20170;-65
2022/05/28 07:15:02;;;;;;;0.70;0.70;;;12.60;99.90;;;;;;5097533;28;20174;-66
2022/05/28 07:17:27;;;;;;;1.50;0.93;;;12.70;99.90;;;;;;5097208;28;20642;-64
2022/05/28 07:19:53;;;;;;;1.20;0.80;;;12.90;99.90;;;;;;5097020;28;20292;-68
2022/05/28 07:22:18;;;;;;;1.73;0.67;;;12.70;99.90;;;;;;5096478;28;20216;-68
2022/05/28 07:24:44;;;;;;;4.57;0.90;;;12.80;99.90;;;;;;5096441;28;20599;-64
2022/05/28 07:27:11;;;;;;;2.17;0.90;;;12.70;99.90;;;;;;5096970;28;20291;-65
2022/05/28 07:29:37;;;;;;;6.73;0.80;;;12.60;99.90;;;;;;5096728;28;20253;-67
2022/05/28 07:32:04;;;;;;;1.00;0.90;;;12.50;99.90;;;;;;5096872;28;20213;-66
2022/05/28 07:34:29;;;;;;;1.23;0.90;;;12.40;99.90;;;;;;5096543;28;20587;-65
2022/05/28 07:36:55;;;;;;;0.80;0.70;;;12.60;99.90;;;;;;5096702;28;20246;-66
2022/05/28 07:39:20;;;;;;;1.00;0.90;;;12.80;99.90;;;;;;5097167;28;20565;-64
2022/05/28 07:41:48;;;;;;;2.83;1.10;;;13.00;99.90;;;;;;5098699;28;20205;-67
2022/05/28 07:44:14;;;;;;;0.70;0.70;;;13.10;99.90;;;;;;5104065;28;20178;-64
2022/05/28 07:46:40;;;;;;;2.70;1.27;;;13.10;99.90;;;;;;5105873;28;20238;-69
2022/05/28 07:49:07;;;;;;;2.47;1.00;;;12.80;99.90;;;;;;5104015;28;20168;-65
2022/05/28 07:51:34;;;;;;;5.13;1.00;;;12.80;99.90;;;;;;5106927;28;20155;-65
2022/05/28 07:53:59;;;;;;;2.13;1.17;;;13.00;99.90;;;;;;5078219;28;20155;-65
2022/05/28 07:56:26;;;;;;;2.70;1.03;;;12.80;99.90;;;;;;5096110;28;20489;-66
2022/05/28 07:58:54;;;;;;;2.37;0.97;;;12.70;99.90;;;;;;5096034;28;20258;-66
2022/05/28 08:01:28;;;;;;;1.93;0.90;;;12.60;99.90;;;;;;5095774;28;20257;-63
2022/05/28 08:03:55;;;;;;;1.93;1.00;;;12.70;99.90;;;;;;5095769;28;20155;-65
2022/05/28 08:06:22;;;;;;;5.83;1.80;;;12.50;99.90;;;;;;5096155;28;20195;-67
2022/05/28 08:08:48;;;;;;;3.13;1.27;;;12.60;99.90;;;;;;5096273;28;20162;-65
2022/05/28 08:11:14;;;;;;;2.73;1.57;;;12.90;99.90;;;;;;5095537;28;20167;-66
2022/05/28 08:13:39;;;;;;;1.30;0.83;;;12.90;99.90;;;;;;5101428;28;20224;-68
2022/05/28 08:16:06;;;;;;;5.00;0.90;;;13.00;99.90;;;;;;5105553;28;20163;-67
2022/05/28 08:18:32;;;;;;;2.73;1.07;;;12.80;99.90;;;;;;5101974;28;20170;-66
2022/05/28 08:23:43;;;;;;;3.30;1.03;;;13.10;99.90;;;;;;5102925;28;20527;-64
2022/05/28 08:26:10;;;;;;;2.00;0.83;;;13.10;99.90;;;;;;5107017;28;20261;-71
2022/05/28 08:28:38;;;;;;;0.73;0.73;;;13.20;99.90;;;;;;5084532;28;20176;-64
2022/05/28 08:31:04;;;;;;;7.77;1.37;;;13.00;99.90;;;;;;5104490;28;20183;-66
2022/05/28 08:33:30;;;;;;;0.80;0.80;;;13.00;99.90;;;;;;5103007;28;20156;-65
2022/05/28 08:35:56;;;;;;;2.00;1.10;;;13.00;99.90;;;;;;5103315;28;20190;-65
2022/05/28 08:38:23;;;;;;;0.70;0.70;;;13.00;99.90;;;;;;5102483;28;20175;-65
2022/05/28 08:40:57;;;;;;;2.87;0.90;;;13.20;99.90;;;;;;5097219;28;20250;-64
2022/05/28 08:43:26;;;;;;;5.90;1.20;;;13.40;99.90;;;;;;5096936;28;20266;-64
2022/05/28 08:45:52;;;;;;;5.20;1.30;;;13.70;99.90;;;;;;5096039;28;20226;-69
2022/05/28 08:48:23;;;;;;;2.77;1.30;;;14.00;99.90;;;;;;5093504;28;20166;-62
2022/05/28 08:51:06;;;;;;;3.63;1.27;;;13.90;99.90;;;;;;5118136;28;20257;-65
2022/05/28 08:53:39;;;;;;;2.13;1.00;;;13.70;99.90;;;;;;5116372;28;20185;-65
2022/05/28 08:56:05;;;;;;;3.93;1.00;;;13.80;99.90;;;;;;5116201;28;20249;-64
2022/05/28 08:58:33;;;;;;;0.93;0.77;;;13.70;99.90;;;;;;5116104;28;20197;-63
2022/05/28 09:01:12;;;;;;;2.07;1.20;;;13.40;99.90;;;;;;5115320;28;20609;-66
2022/05/28 09:04:06;;;;;;;3.97;1.20;;;13.30;99.90;;;;;;5115777;28;20161;-63
2022/05/28 09:06:34;;;;;;;3.10;1.27;;;13.30;99.90;;;;;;5111771;28;20221;-65
2022/05/28 09:09:00;;;;;;;1.03;0.93;;;13.30;99.90;;;;;;5115238;28;20219;-66
2022/05/28 09:11:57;;;;;;;4.43;1.27;;;13.40;99.90;;;;;;5114912;28;20162;-63
2022/05/28 09:14:29;;;;;;;1.87;0.90;;;13.30;99.90;;;;;;5113037;28;20189;-64
2022/05/28 09:16:59;;;;;;;5.50;0.90;;;13.40;99.90;;;;;;5115501;28;20216;-66
2022/05/28 09:19:30;;;;;;;3.10;1.20;;;13.40;99.90;;;;;;5115882;28;20173;-66
2022/05/28 09:21:55;;;;;;;2.67;1.07;;;13.50;99.90;;;;;;5097092;28;20170;-63
2022/05/28 09:24:27;;;;;;;2.50;1.10;;;13.60;99.90;;;;;;5115498;28;20163;-65
2022/05/28 09:26:58;;;;;;;4.37;1.10;;;13.40;99.90;;;;;;5114940;28;20237;-62
2022/05/28 09:29:26;;;;;;;2.17;1.03;;;13.40;99.90;;;;;;5115059;28;20169;-63
2022/05/28 09:32:40;;;;;;;6.50;1.10;;;13.40;99.90;;;;;;5114888;28;20314;-65
2022/05/28 09:35:24;;;;;;;1.40;0.93;;;13.30;99.90;;;;;;5092862;28;20634;-65
2022/05/28 09:38:12;;;;;;;2.33;1.10;;;13.60;99.90;;;;;;5114631;28;20211;-64
2022/05/28 09:40:51;;;;;;;4.47;1.40;;;13.70;99.90;;;;;;5114396;28;20192;-63
2022/05/28 09:43:28;;;;;;;5.33;1.10;;;14.00;99.90;;;;;;5114677;28;20169;-64
2022/05/28 09:46:00;;;;;;;2.73;1.23;;;14.40;99.90;;;;;;5114377;28;20608;-63
2022/05/28 09:48:28;;;;;;;1.83;0.90;;;14.60;99.90;;;;;;5114513;28;20173;-63
2022/05/28 09:50:55;;;;;;;4.67;1.17;;;14.80;99.90;;;;;;5114938;28;20224;-65
2022/05/28 09:56:29;;;;;;;3.60;1.20;;;14.80;99.10;;;;;;5114396;28;20173;-65
2022/05/28 09:58:55;;;;;;;2.17;0.97;;;14.60;99.90;;;;;;5114693;28;20163;-66
2022/05/28 10:01:24;;;;;;;1.90;0.97;;;15.20;99.90;;;;;;5096336;28;20231;-63
2022/05/28 10:06:48;;;;;;;5.57;1.63;;;15.00;98.20;;;;;;5115822;28;20239;-64
2022/05/28 10:09:22;;;;;;;4.97;1.37;;;14.70;99.30;;;;;;5115768;28;20174;-64
2022/05/28 10:11:51;;;;;;;3.70;1.40;;;14.70;99.70;;;;;;5116076;28;20196;-64
2022/05/28 10:14:17;;;;;;;4.27;1.40;;;14.80;99.90;;;;;;5116029;28;20180;-63
2022/05/28 10:16:46;;;;;;;2.50;1.00;;;14.90;99.90;;;;;;5116692;28;20237;-67
2022/05/28 10:19:24;;;;;;;1.93;1.20;;;15.60;99.40;;;;;;5118629;28;20177;-65
2022/05/28 10:21:53;;;;;;;3.73;1.13;;;15.30;97.20;;;;;;5127358;28;20154;-66
2022/05/28 10:24:21;;;;;;;4.87;1.20;;;15.10;98.10;;;;;;5125747;28;20196;-64
2022/05/28 10:26:53;;;;;;;0.70;0.70;;;14.90;96.30;;;;;;5125533;28;20483;-65
2022/05/28 10:29:23;;;;;;;1.80;1.13;;;14.80;96.60;;;;;;5126719;28;20178;-65
2022/05/28 10:31:50;;;;;;;1.50;1.10;;;15.00;96.10;;;;;;5114637;28;20285;-63
2022/05/28 10:34:38;;;;;;;2.40;1.10;;;15.10;95.50;;;;;;5122882;28;20161;-64
2022/05/28 10:37:18;;;;;;;4.17;1.10;;;15.00;96.10;;;;;;5122646;28;20180;-63
2022/05/28 10:39:44;;;;;;;5.03;1.30;;;15.00;94.70;;;;;;5122418;28;20175;-65
2022/05/28 10:42:12;;;;;;;3.23;1.40;;;14.90;93.40;;;;;;5121483;28;20249;-65
2022/05/28 10:44:43;;;;;;;2.40;1.10;;;14.60;93.70;;;;;;5114797;28;20158;-64
2022/05/28 10:47:27;;;;;;;4.57;1.00;;;14.60;95.30;;;;;;5114421;28;20243;-64
2022/05/28 10:50:23;;;;;;;6.27;1.10;;;15.20;95.00;;;;;;5114417;28;20162;-64
2022/05/28 10:53:17;;;;;;;1.87;0.97;;;15.90;93.20;;;;;;5114655;28;20269;-64
2022/05/28 10:55:55;;;;;;;1.33;0.90;;;16.20;91.70;;;;;;5113822;28;20190;-64
2022/05/28 10:58:48;;;;;;;5.57;1.20;;;16.40;90.40;;;;;;5114106;28;20154;-63
2022/05/28 11:01:39;;;;;;;3.70;1.13;;;16.00;90.30;;;;;;5095660;28;20174;-64
2022/05/28 11:04:14;;;;;;;3.13;1.23;;;16.10;89.40;;;;;;5095965;28;20586;-63
2022/05/28 11:06:56;;;;;;;1.33;0.87;;;16.10;89.00;;;;;;5113778;28;20289;-65
2022/05/28 11:09:36;;;;;;;1.97;1.00;;;16.40;89.40;;;;;;5113991;28;20158;-65
2022/05/28 11:12:26;;;;;;;1.80;0.97;;;16.30;88.60;;;;;;5096009;28;20508;-62
2022/05/28 11:15:15;;;;;;;2.37;1.07;;;15.90;89.50;;;;;;5113643;28;20211;-65
2022/05/28 11:17:50;;;;;;;1.67;0.90;;;15.70;90.40;;;;;;5113607;28;20174;-67
2022/05/28 11:20:46;;;;;;;3.53;1.00;;;16.30;86.60;;;;;;5093846;28;20300;-65
2022/05/28 11:23:39;;;;;;;1.97;0.90;;;16.30;85.70;;;;;;5093739;28;20159;-64
2022/05/28 11:26:10;;;;;;;1.33;0.80;;;16.60;83.80;;;;;;5093210;28;20218;-63
2022/05/28 11:28:42;;;;;;;3.60;1.00;;;16.40;83.90;;;;;;5092943;28;20511;-64
2022/05/28 11:31:31;;;;;;;1.53;0.90;;;16.10;83.90;;;;;;5093818;28;20155;-63
2022/05/28 11:34:03;;;;;;;1.77;1.00;;;15.80;85.70;;;;;;5093076;28;20190;-65
2022/05/28 11:36:39;;;;;;;1.60;0.90;;;16.10;87.30;;;;;;5093965;28;20170;-65
2022/05/28 11:39:17;;;;;;;1.73;0.97;;;16.20;86.40;;;;;;5079240;28;20508;-64
2022/05/28 11:42:17;;;;;;;2.67;1.00;;;16.70;82.80;;;;;;5096853;28;20159;-64
2022/05/28 11:44:54;;;;;;;3.17;1.00;;;16.80;79.50;;;;;;5034590;28;20197;-65
2022/05/28 11:47:43;;;;;;;0.97;0.87;;;16.30;79.30;;;;;;5097049;28;20514;-62
2022/05/28 11:53:16;;;;;;;1.57;1.13;;;15.60;85.30;;;;;;5096826;28;20478;-63
2022/05/28 11:55:43;;;;;;;3.23;0.87;;;15.70;88.70;;;;;;5078255;28;20179;-65
2022/05/28 11:58:39;;;;;;;3.63;1.13;;;16.20;88.50;;;;;;5097543;28;20182;-64
2022/05/28 12:01:11;;;;;;;2.63;0.97;;;16.70;82.80;;;;;;5095830;28;20210;-63
2022/05/28 12:03:38;;;;;;;2.77;0.87;;;17.10;81.70;;;;;;5078962;28;20266;-63
2022/05/28 12:06:03;;;;;;;1.37;0.80;;;16.40;81.90;;;;;;5098520;28;20241;-64
2022/05/28 12:08:38;;;;;;;2.00;0.87;;;16.70;79.90;;;;;;5100264;28;20599;-62
2022/05/28 12:11:09;;;;;;;5.73;1.27;;;17.00;78.60;;;;;;5100403;28;20162;-64
2022/05/28 12:13:50;;;;;;;2.83;1.20;;;17.70;79.40;;;;;;5096986;28;20163;-64
2022/05/28 12:16:21;;;;;;;1.25;0.73;;;16.90;77.00;;;;;;5096508;28;20572;-66
2022/05/28 12:19:16;;;;;;;1.77;0.73;;;17.00;78.80;;;;;;5096921;28;20170;-64
2022/05/28 12:21:44;;;;;;;1.02;0.80;;;17.80;78.90;;;;;;5082213;28;20183;-66
2022/05/28 12:24:27;;;;;;;1.75;0.80;;;18.20;75.40;;;;;;5100597;28;20182;-63
2022/05/28 12:29:49;;;;;;;1.17;0.85;;;17.70;74.50;;;;;;5100407;28;20163;-65
2022/05/28 12:32:17;;;;;;;3.55;1.20;;;17.10;76.40;;;;;;5099621;28;20177;-65
2022/05/28 12:35:00;;;;;;;5.05;1.38;;;16.60;76.00;;;;;;5083744;28;20221;-64
2022/05/28 12:37:34;;;;;;;2.67;0.90;;;16.40;78.90;;;;;;5108430;28;20191;-67
2022/05/28 12:40:23;;;;;;;1.33;0.90;;;16.30;76.00;;;;;;5101033;28;20154;-65
2022/05/28 12:42:49;;;;;;;1.50;1.03;;;16.70;73.70;;;;;;5097169;28;20178;-64
2022/05/28 12:45:23;;;;;;;2.33;0.97;;;17.20;73.70;;;;;;5095596;28;20607;-65
2022/05/28 12:47:49;;;;;;;1.40;1.00;;;16.80;75.80;;;;;;5094535;28;20245;-66
2022/05/28 12:50:43;;;;;;;3.63;1.43;;;16.50;76.90;;;;;;5095303;28;20194;-65
2022/05/28 12:53:18;;;;;;;2.83;1.20;;;16.50;78.10;;;;;;5095687;28;20162;-64
2022/05/28 12:55:44;;;;;;;1.30;0.93;;;17.40;76.00;;;;;;5095692;28;20169;-64
2022/05/28 12:58:25;;;;;;;2.00;0.88;;;18.00;74.10;;;;;;5095692;28;20159;-63
2022/05/28 13:00:57;;;;;;;2.67;1.05;;;17.80;73.10;;;;;;5095226;28;20255;-64
2022/05/28 13:03:26;;;;;;;1.02;0.85;;;17.90;72.60;;;;;;5095745;28;20238;-65
2022/05/28 13:06:13;;;;;;;1.88;1.02;;;17.90;72.30;;;;;;5076627;28;20207;-64
2022/05/28 13:08:55;;;;;;;1.42;1.30;;;17.50;71.30;;;;;;5063663;28;20193;-64
2022/05/28 13:11:40;;;;;;;2.67;0.73;;;17.10;73.50;;;;;;5095048;28;20167;-64
2022/05/28 13:14:33;;;;;;;1.67;0.80;;;17.30;73.80;;;;;;5095240;28;20247;-66
2022/05/28 13:17:14;;;;;;;1.50;1.00;;;17.60;71.60;;;;;;5095329;28;20212;-65
2022/05/28 13:20:00;;;;;;;7.55;2.80;;;17.10;74.40;;;;;;5094842;28;20166;-64